sensor_id;sensor_type;location;lat;lon;timestamp;pressure;altitude;pressure_sealevel;temperature;humidity
70103;BME280;57470;50.034;15.256;2023-05-10T00:02:06;99139.72;;;9.91;75.55
70103;BME280;57470;50.034;15.256;2023-05-10T00:04:32;99143.19;;;10.04;75.03
70103;BME280;57470;50.034;15.256;2023-05-10T00:06:57;99147.63;;;10.29;74.08
70103;BME280;57470;50.034;15.256;2023-05-10T00:09:23;99141.38;;;10.05;74.94
70103;BME280;57470;50.034;15.256;2023-05-10T00:11:48;99134.06;;;10.08;75.18
70103;BME280;57470;50.034;15.256;2023-05-10T00:14:14;99135.13;;;10.19;74.83
70103;BME280;57470;50.034;15.256;2023-05-10T00:16:39;99125.34;;;10.19;74.61
70103;BME280;57470;50.034;15.256;2023-05-10T00:19:04;99120.13;;;10.05;75.06
70103;BME280;57470;50.034;15.256;2023-05-10T00:21:30;99123.66;;;10.18;74.84
70103;BME280;57470;50.034;15.256;2023-05-10T00:23:55;99132.75;;;10.27;74.88
70103;BME280;57470;50.034;15.256;2023-05-10T00:26:20;99115.56;;;9.94;76.07
70103;BME280;57470;50.034;15.256;2023-05-10T00:28:46;99121.34;;;9.88;76.42
70103;BME280;57470;50.034;15.256;2023-05-10T00:31:11;99123.84;;;10.02;75.84
70103;BME280;57470;50.034;15.256;2023-05-10T00:33:37;99122.47;;;10.09;75.86
70103;BME280;57470;50.034;15.256;2023-05-10T00:36:02;99115.34;;;10.10;75.88
70103;BME280;57470;50.034;15.256;2023-05-10T00:38:28;99122.19;;;10.01;76.89
70103;BME280;57470;50.034;15.256;2023-05-10T00:40:53;99111.91;;;10.21;76.19
70103;BME280;57470;50.034;15.256;2023-05-10T00:43:19;99119.72;;;10.11;76.54
70103;BME280;57470;50.034;15.256;2023-05-10T00:45:44;99108.75;;;10.03;76.91
70103;BME280;57470;50.034;15.256;2023-05-10T00:48:09;99102.38;;;10.18;76.19
70103;BME280;57470;50.034;15.256;2023-05-10T00:50:35;99102.13;;;10.21;76.37
70103;BME280;57470;50.034;15.256;2023-05-10T00:53:02;99106.34;;;10.36;75.95
70103;BME280;57470;50.034;15.256;2023-05-10T00:55:27;99093.72;;;10.51;75.14
70103;BME280;57470;50.034;15.256;2023-05-10T00:57:53;99104.72;;;10.46;75.78
70103;BME280;57470;50.034;15.256;2023-05-10T01:00:20;99095.25;;;10.42;75.45
70103;BME280;57470;50.034;15.256;2023-05-10T01:02:46;99085.84;;;10.73;74.02
70103;BME280;57470;50.034;15.256;2023-05-10T01:05:12;99091.41;;;10.70;74.33
70103;BME280;57470;50.034;15.256;2023-05-10T01:07:38;99098.47;;;10.59;74.80
70103;BME280;57470;50.034;15.256;2023-05-10T01:10:07;99088.53;;;10.73;74.41
70103;BME280;57470;50.034;15.256;2023-05-10T01:12:38;99097.09;;;10.77;74.24
70103;BME280;57470;50.034;15.256;2023-05-10T01:15:06;99093.75;;;10.86;74.10
70103;BME280;57470;50.034;15.256;2023-05-10T01:17:34;99089.97;;;10.77;74.42
70103;BME280;57470;50.034;15.256;2023-05-10T01:20:00;99085.16;;;10.82;74.35
70103;BME280;57470;50.034;15.256;2023-05-10T01:25:45;99089.69;;;10.69;75.24
70103;BME280;57470;50.034;15.256;2023-05-10T01:28:28;99083.59;;;10.56;75.72
70103;BME280;57470;50.034;15.256;2023-05-10T01:31:27;99088.91;;;10.56;76.02
70103;BME280;57470;50.034;15.256;2023-05-10T01:39:47;99074.84;;;10.78;74.42
70103;BME280;57470;50.034;15.256;2023-05-10T01:42:17;99069.06;;;10.84;74.64
70103;BME280;57470;50.034;15.256;2023-05-10T01:48:11;99073.38;;;10.74;74.84
70103;BME280;57470;50.034;15.256;2023-05-10T01:50:39;99078.94;;;10.71;75.16
70103;BME280;57470;50.034;15.256;2023-05-10T01:53:08;99076.03;;;10.74;74.97
70103;BME280;57470;50.034;15.256;2023-05-10T01:55:41;99070.22;;;10.69;74.93
70103;BME280;57470;50.034;15.256;2023-05-10T01:58:10;99073.69;;;10.58;75.40
70103;BME280;57470;50.034;15.256;2023-05-10T02:00:40;99078.56;;;10.64;75.38
70103;BME280;57470;50.034;15.256;2023-05-10T02:03:08;99072.56;;;10.73;74.75
70103;BME280;57470;50.034;15.256;2023-05-10T02:05:36;99065.53;;;10.72;74.58
70103;BME280;57470;50.034;15.256;2023-05-10T02:08:05;99076.59;;;10.90;73.73
70103;BME280;57470;50.034;15.256;2023-05-10T02:10:32;99075.22;;;10.84;74.29
70103;BME280;57470;50.034;15.256;2023-05-10T02:13:01;99061.00;;;10.97;73.76
70103;BME280;57470;50.034;15.256;2023-05-10T02:15:29;99061.75;;;10.64;75.13
70103;BME280;57470;50.034;15.256;2023-05-10T02:17:57;99070.34;;;10.67;74.77
70103;BME280;57470;50.034;15.256;2023-05-10T02:20:26;99065.59;;;10.60;75.07
70103;BME280;57470;50.034;15.256;2023-05-10T02:22:54;99071.72;;;10.73;74.17
70103;BME280;57470;50.034;15.256;2023-05-10T02:25:23;99064.41;;;10.64;74.53
70103;BME280;57470;50.034;15.256;2023-05-10T02:27:54;99056.19;;;10.67;74.65
70103;BME280;57470;50.034;15.256;2023-05-10T02:30:22;99064.84;;;10.58;75.04
70103;BME280;57470;50.034;15.256;2023-05-10T02:32:51;99064.16;;;10.67;74.35
70103;BME280;57470;50.034;15.256;2023-05-10T02:35:19;99062.13;;;10.70;74.25
70103;BME280;57470;50.034;15.256;2023-05-10T02:37:48;99060.81;;;10.76;73.77
70103;BME280;57470;50.034;15.256;2023-05-10T02:40:16;99062.13;;;10.70;74.38
70103;BME280;57470;50.034;15.256;2023-05-10T02:42:44;99059.75;;;10.78;74.03
70103;BME280;57470;50.034;15.256;2023-05-10T02:45:18;99074.31;;;10.62;74.48
70103;BME280;57470;50.034;15.256;2023-05-10T02:47:45;99072.63;;;10.61;74.88
70103;BME280;57470;50.034;15.256;2023-05-10T02:50:13;99065.22;;;10.53;75.27
70103;BME280;57470;50.034;15.256;2023-05-10T02:52:47;99072.41;;;10.64;74.46
70103;BME280;57470;50.034;15.256;2023-05-10T02:55:21;99074.78;;;10.56;75.06
70103;BME280;57470;50.034;15.256;2023-05-10T02:57:52;99077.31;;;10.57;75.28
70103;BME280;57470;50.034;15.256;2023-05-10T03:00:22;99074.06;;;10.53;75.33
70103;BME280;57470;50.034;15.256;2023-05-10T03:02:49;99078.34;;;10.43;76.18
70103;BME280;57470;50.034;15.256;2023-05-10T03:05:16;99076.38;;;10.34;76.39
70103;BME280;57470;50.034;15.256;2023-05-10T03:07:44;99069.84;;;10.62;75.44
70103;BME280;57470;50.034;15.256;2023-05-10T03:10:11;99070.34;;;10.67;75.61
70103;BME280;57470;50.034;15.256;2023-05-10T03:13:10;99073.94;;;10.55;75.46
70103;BME280;57470;50.034;15.256;2023-05-10T03:15:47;99067.31;;;10.61;75.73
70103;BME280;57470;50.034;15.256;2023-05-10T03:18:29;99077.47;;;10.67;75.66
70103;BME280;57470;50.034;15.256;2023-05-10T03:21:04;99075.47;;;10.46;76.35
70103;BME280;57470;50.034;15.256;2023-05-10T03:23:58;99075.22;;;10.49;76.57
70103;BME280;57470;50.034;15.256;2023-05-10T03:26:26;99085.69;;;10.40;76.74
70103;BME280;57470;50.034;15.256;2023-05-10T03:28:53;99076.44;;;10.45;76.86
70103;BME280;57470;50.034;15.256;2023-05-10T03:31:19;99082.72;;;10.44;77.20
70103;BME280;57470;50.034;15.256;2023-05-10T03:33:46;99083.28;;;10.37;77.25
70103;BME280;57470;50.034;15.256;2023-05-10T03:36:12;99086.13;;;10.58;76.85
70103;BME280;57470;50.034;15.256;2023-05-10T03:38:40;99089.31;;;10.39;77.53
70103;BME280;57470;50.034;15.256;2023-05-10T03:41:05;99084.91;;;10.50;77.62
70103;BME280;57470;50.034;15.256;2023-05-10T03:43:31;99083.59;;;10.32;77.95
70103;BME280;57470;50.034;15.256;2023-05-10T03:45:56;99092.50;;;10.44;77.71
70103;BME280;57470;50.034;15.256;2023-05-10T03:48:22;99081.84;;;10.44;77.85
70103;BME280;57470;50.034;15.256;2023-05-10T03:50:47;99077.94;;;10.61;77.47
70103;BME280;57470;50.034;15.256;2023-05-10T03:53:14;99077.81;;;10.38;78.59
70103;BME280;57470;50.034;15.256;2023-05-10T03:55:40;99062.19;;;10.46;78.26
70103;BME280;57470;50.034;15.256;2023-05-10T03:58:05;99073.63;;;10.47;78.58
70103;BME280;57470;50.034;15.256;2023-05-10T04:00:31;99070.44;;;10.66;77.96
70103;BME280;57470;50.034;15.256;2023-05-10T04:02:56;99072.03;;;11.14;77.19
70103;BME280;57470;50.034;15.256;2023-05-10T04:05:22;99072.09;;;11.70;75.75
70103;BME280;57470;50.034;15.256;2023-05-10T04:07:47;99067.25;;;11.53;75.27
70103;BME280;57470;50.034;15.256;2023-05-10T04:10:14;99067.59;;;11.82;74.17
70103;BME280;57470;50.034;15.256;2023-05-10T04:12:41;99069.16;;;12.50;72.57
70103;BME280;57470;50.034;15.256;2023-05-10T04:15:07;99061.69;;;14.27;67.50
70103;BME280;57470;50.034;15.256;2023-05-10T04:17:33;99057.09;;;13.89;68.57
70103;BME280;57470;50.034;15.256;2023-05-10T04:19:58;99054.00;;;12.50;71.41
70103;BME280;57470;50.034;15.256;2023-05-10T04:22:24;99051.84;;;12.01;73.64
70103;BME280;57470;50.034;15.256;2023-05-10T04:24:49;99050.53;;;12.70;72.67
70103;BME280;57470;50.034;15.256;2023-05-10T04:27:15;99048.97;;;11.82;73.80
70103;BME280;57470;50.034;15.256;2023-05-10T04:29:40;99046.47;;;12.23;73.12
70103;BME280;57470;50.034;15.256;2023-05-10T04:32:06;99049.66;;;12.06;73.79
70103;BME280;57470;50.034;15.256;2023-05-10T04:34:31;99044.47;;;11.71;74.78
70103;BME280;57470;50.034;15.256;2023-05-10T04:36:59;99052.47;;;11.49;75.55
70103;BME280;57470;50.034;15.256;2023-05-10T04:39:24;99045.19;;;11.73;75.32
70103;BME280;57470;50.034;15.256;2023-05-10T04:41:49;99051.03;;;11.78;75.19
70103;BME280;57470;50.034;15.256;2023-05-10T04:44:15;99047.63;;;11.65;76.29
70103;BME280;57470;50.034;15.256;2023-05-10T04:46:40;99058.28;;;11.54;77.00
70103;BME280;57470;50.034;15.256;2023-05-10T04:49:06;99050.28;;;11.65;76.88
70103;BME280;57470;50.034;15.256;2023-05-10T04:51:31;99045.44;;;11.59;76.10
70103;BME280;57470;50.034;15.256;2023-05-10T04:53:57;99051.28;;;11.53;76.37
70103;BME280;57470;50.034;15.256;2023-05-10T04:56:22;99053.09;;;11.86;76.28
70103;BME280;57470;50.034;15.256;2023-05-10T04:58:48;99053.94;;;11.75;76.57
70103;BME280;57470;50.034;15.256;2023-05-10T05:01:13;99057.56;;;11.63;77.81
70103;BME280;57470;50.034;15.256;2023-05-10T05:03:39;99055.38;;;11.68;77.05
70103;BME280;57470;50.034;15.256;2023-05-10T05:06:04;99056.22;;;11.69;77.71
70103;BME280;57470;50.034;15.256;2023-05-10T05:08:30;99060.97;;;11.87;77.48
70103;BME280;57470;50.034;15.256;2023-05-10T05:10:55;99055.13;;;11.71;77.70
70103;BME280;57470;50.034;15.256;2023-05-10T05:13:21;99053.44;;;11.92;77.35
70103;BME280;57470;50.034;15.256;2023-05-10T05:15:46;99058.25;;;12.10;76.68
70103;BME280;57470;50.034;15.256;2023-05-10T05:18:11;99055.56;;;12.10;76.11
70103;BME280;57470;50.034;15.256;2023-05-10T05:20:37;99048.94;;;12.04;76.97
70103;BME280;57470;50.034;15.256;2023-05-10T05:23:02;99056.53;;;12.20;76.55
70103;BME280;57470;50.034;15.256;2023-05-10T05:25:28;99061.19;;;12.38;77.15
70103;BME280;57470;50.034;15.256;2023-05-10T05:27:53;99052.50;;;12.57;76.57
70103;BME280;57470;50.034;15.256;2023-05-10T05:30:19;99054.66;;;12.63;76.44
70103;BME280;57470;50.034;15.256;2023-05-10T05:32:44;99058.41;;;12.93;75.24
70103;BME280;57470;50.034;15.256;2023-05-10T05:35:09;99058.72;;;12.78;74.17
70103;BME280;57470;50.034;15.256;2023-05-10T05:37:35;99056.47;;;12.95;74.63
70103;BME280;57470;50.034;15.256;2023-05-10T05:40:01;99049.47;;;13.14;74.92
70103;BME280;57470;50.034;15.256;2023-05-10T05:42:27;99053.56;;;13.07;74.21
70103;BME280;57470;50.034;15.256;2023-05-10T05:44:52;99060.44;;;13.21;73.25
70103;BME280;57470;50.034;15.256;2023-05-10T05:47:17;99049.47;;;13.14;73.42
70103;BME280;57470;50.034;15.256;2023-05-10T05:49:43;99052.22;;;13.13;73.29
70103;BME280;57470;50.034;15.256;2023-05-10T05:52:11;99049.69;;;13.32;73.78
70103;BME280;57470;50.034;15.256;2023-05-10T05:54:36;99051.88;;;13.48;73.72
70103;BME280;57470;50.034;15.256;2023-05-10T05:57:01;99051.91;;;13.58;73.84
70103;BME280;57470;50.034;15.256;2023-05-10T05:59:27;99053.53;;;13.39;72.93
70103;BME280;57470;50.034;15.256;2023-05-10T06:01:52;99050.97;;;13.68;72.90
70103;BME280;57470;50.034;15.256;2023-05-10T06:04:18;99058.84;;;14.10;72.77
70103;BME280;57470;50.034;15.256;2023-05-10T06:06:44;99051.44;;;13.83;72.21
70103;BME280;57470;50.034;15.256;2023-05-10T06:09:09;99050.81;;;14.10;71.38
70103;BME280;57470;50.034;15.256;2023-05-10T06:11:35;99048.25;;;13.99;71.40
70103;BME280;57470;50.034;15.256;2023-05-10T06:14:01;99052.63;;;14.00;71.89
70103;BME280;57470;50.034;15.256;2023-05-10T06:16:28;99059.53;;;14.02;70.77
70103;BME280;57470;50.034;15.256;2023-05-10T06:18:54;99058.41;;;14.14;69.88
70103;BME280;57470;50.034;15.256;2023-05-10T06:21:19;99050.25;;;14.16;70.01
70103;BME280;57470;50.034;15.256;2023-05-10T06:23:44;99049.75;;;14.41;70.26
70103;BME280;57470;50.034;15.256;2023-05-10T06:26:10;99049.34;;;14.55;69.94
70103;BME280;57470;50.034;15.256;2023-05-10T06:28:36;99055.69;;;14.83;70.28
70103;BME280;57470;50.034;15.256;2023-05-10T06:31:05;99054.72;;;14.94;69.17
70103;BME280;57470;50.034;15.256;2023-05-10T06:33:30;99054.22;;;15.18;69.15
70103;BME280;57470;50.034;15.256;2023-05-10T06:35:56;99049.19;;;15.52;69.14
70103;BME280;57470;50.034;15.256;2023-05-10T06:38:22;99040.31;;;14.85;67.86
70103;BME280;57470;50.034;15.256;2023-05-10T06:40:47;99041.28;;;15.03;69.86
70103;BME280;57470;50.034;15.256;2023-05-10T06:43:13;99034.16;;;15.31;68.25
70103;BME280;57470;50.034;15.256;2023-05-10T06:45:38;99041.88;;;15.44;66.79
70103;BME280;57470;50.034;15.256;2023-05-10T06:48:04;99029.75;;;15.40;66.07
70103;BME280;57470;50.034;15.256;2023-05-10T06:50:29;99040.47;;;15.40;68.41
70103;BME280;57470;50.034;15.256;2023-05-10T06:52:55;99034.19;;;15.22;67.95
70103;BME280;57470;50.034;15.256;2023-05-10T06:55:21;99027.94;;;15.77;67.62
70103;BME280;57470;50.034;15.256;2023-05-10T06:57:46;99031.31;;;15.80;67.31
70103;BME280;57470;50.034;15.256;2023-05-10T07:00:13;99027.75;;;15.89;65.54
70103;BME280;57470;50.034;15.256;2023-05-10T07:02:38;99028.91;;;16.04;67.60
70103;BME280;57470;50.034;15.256;2023-05-10T07:05:04;99028.50;;;15.81;65.11
70103;BME280;57470;50.034;15.256;2023-05-10T07:07:29;99028.84;;;15.96;65.58
70103;BME280;57470;50.034;15.256;2023-05-10T07:09:55;99037.50;;;15.90;65.14
70103;BME280;57470;50.034;15.256;2023-05-10T07:12:22;99028.69;;;15.97;66.12
70103;BME280;57470;50.034;15.256;2023-05-10T07:14:47;99026.19;;;15.86;63.88
70103;BME280;57470;50.034;15.256;2023-05-10T07:17:13;99029.38;;;15.99;64.51
70103;BME280;57470;50.034;15.256;2023-05-10T07:19:38;99027.22;;;16.03;65.09
70103;BME280;57470;50.034;15.256;2023-05-10T07:22:04;99026.41;;;16.20;64.53
70103;BME280;57470;50.034;15.256;2023-05-10T07:24:29;99036.69;;;16.07;63.88
70103;BME280;57470;50.034;15.256;2023-05-10T07:26:56;99014.94;;;16.10;64.31
70103;BME280;57470;50.034;15.256;2023-05-10T07:29:21;99017.91;;;16.07;64.12
70103;BME280;57470;50.034;15.256;2023-05-10T07:31:46;99017.78;;;16.26;63.66
70103;BME280;57470;50.034;15.256;2023-05-10T07:34:12;99010.19;;;16.39;64.99
70103;BME280;57470;50.034;15.256;2023-05-10T07:36:37;99005.88;;;16.29;64.23
70103;BME280;57470;50.034;15.256;2023-05-10T07:39:03;99016.81;;;16.63;62.91
70103;BME280;57470;50.034;15.256;2023-05-10T07:41:28;99009.25;;;16.84;63.15
70103;BME280;57470;50.034;15.256;2023-05-10T07:43:53;99013.50;;;16.69;64.52
70103;BME280;57470;50.034;15.256;2023-05-10T07:46:19;99011.75;;;17.03;63.02
70103;BME280;57470;50.034;15.256;2023-05-10T07:48:45;99018.66;;;17.06;64.28
70103;BME280;57470;50.034;15.256;2023-05-10T07:51:10;99018.84;;;16.86;61.83
70103;BME280;57470;50.034;15.256;2023-05-10T07:53:35;99016.38;;;17.19;62.10
70103;BME280;57470;50.034;15.256;2023-05-10T07:56:29;99018.94;;;17.20;60.68
70103;BME280;57470;50.034;15.256;2023-05-10T07:58:58;99019.13;;;17.27;61.44
70103;BME280;57470;50.034;15.256;2023-05-10T08:01:24;99010.91;;;17.29;60.45
70103;BME280;57470;50.034;15.256;2023-05-10T08:03:50;99011.25;;;17.25;60.38
70103;BME280;57470;50.034;15.256;2023-05-10T08:06:17;99012.50;;;17.13;61.33
70103;BME280;57470;50.034;15.256;2023-05-10T08:08:43;99015.41;;;17.54;61.64
70103;BME280;57470;50.034;15.256;2023-05-10T08:11:10;99002.59;;;17.40;60.80
70103;BME280;57470;50.034;15.256;2023-05-10T08:13:36;99004.28;;;17.15;61.24
70103;BME280;57470;50.034;15.256;2023-05-10T08:16:01;99004.78;;;17.18;61.61
70103;BME280;57470;50.034;15.256;2023-05-10T08:18:27;99006.84;;;17.50;62.17
70103;BME280;57470;50.034;15.256;2023-05-10T08:20:53;99009.34;;;17.78;61.69
70103;BME280;57470;50.034;15.256;2023-05-10T08:23:19;99007.16;;;17.81;60.93
70103;BME280;57470;50.034;15.256;2023-05-10T08:25:44;99012.34;;;17.41;61.07
70103;BME280;57470;50.034;15.256;2023-05-10T08:28:09;99008.25;;;17.37;61.13
70103;BME280;57470;50.034;15.256;2023-05-10T08:30:35;99005.13;;;17.75;61.57
70103;BME280;57470;50.034;15.256;2023-05-10T08:33:00;99009.38;;;17.86;60.71
70103;BME280;57470;50.034;15.256;2023-05-10T08:35:25;99008.22;;;17.88;60.84
70103;BME280;57470;50.034;15.256;2023-05-10T08:37:51;99009.59;;;18.00;60.59
70103;BME280;57470;50.034;15.256;2023-05-10T08:40:19;99011.16;;;18.11;61.16
70103;BME280;57470;50.034;15.256;2023-05-10T08:42:50;99015.69;;;18.11;61.62
70103;BME280;57470;50.034;15.256;2023-05-10T08:45:17;99008.34;;;18.37;60.55
70103;BME280;57470;50.034;15.256;2023-05-10T08:47:44;99023.31;;;18.23;59.15
70103;BME280;57470;50.034;15.256;2023-05-10T08:50:11;99018.06;;;18.14;59.93
70103;BME280;57470;50.034;15.256;2023-05-10T08:52:38;99012.88;;;18.36;59.85
70103;BME280;57470;50.034;15.256;2023-05-10T08:55:05;99009.03;;;18.55;60.42
70103;BME280;57470;50.034;15.256;2023-05-10T08:57:31;99010.91;;;18.79;60.19
70103;BME280;57470;50.034;15.256;2023-05-10T08:59:56;99006.88;;;18.99;59.71
70103;BME280;57470;50.034;15.256;2023-05-10T09:02:23;99008.69;;;18.42;59.47
70103;BME280;57470;50.034;15.256;2023-05-10T09:04:48;99020.31;;;18.43;61.34
70103;BME280;57470;50.034;15.256;2023-05-10T09:07:14;99017.09;;;18.31;60.81
70103;BME280;57470;50.034;15.256;2023-05-10T09:09:39;99007.34;;;18.54;61.09
70103;BME280;57470;50.034;15.256;2023-05-10T09:12:05;99003.34;;;18.66;59.61
70103;BME280;57470;50.034;15.256;2023-05-10T09:14:33;99005.53;;;18.71;59.64
70103;BME280;57470;50.034;15.256;2023-05-10T09:17:00;99005.69;;;18.61;60.41
70103;BME280;57470;50.034;15.256;2023-05-10T09:19:27;99004.34;;;18.90;60.08
70103;BME280;57470;50.034;15.256;2023-05-10T09:21:53;99017.47;;;19.09;60.74
70103;BME280;57470;50.034;15.256;2023-05-10T09:24:18;99019.53;;;18.74;59.01
70103;BME280;57470;50.034;15.256;2023-05-10T09:26:48;99012.25;;;19.32;58.43
70103;BME280;57470;50.034;15.256;2023-05-10T09:29:14;99019.66;;;19.22;59.63
70103;BME280;57470;50.034;15.256;2023-05-10T09:34:08;99025.19;;;19.36;60.20
70103;BME280;57470;50.034;15.256;2023-05-10T09:36:34;99020.44;;;19.63;59.20
70103;BME280;57470;50.034;15.256;2023-05-10T09:38:59;99014.44;;;19.28;58.89
70103;BME280;57470;50.034;15.256;2023-05-10T09:41:25;99021.16;;;19.40;58.84
70103;BME280;57470;50.034;15.256;2023-05-10T09:43:55;99026.88;;;19.37;59.42
70103;BME280;57470;50.034;15.256;2023-05-10T09:46:21;99010.75;;;19.21;58.81
70103;BME280;57470;50.034;15.256;2023-05-10T09:48:48;99021.47;;;19.54;59.43
70103;BME280;57470;50.034;15.256;2023-05-10T09:51:23;99004.53;;;19.13;60.07
70103;BME280;57470;50.034;15.256;2023-05-10T09:54:11;99014.69;;;19.66;59.78
70103;BME280;57470;50.034;15.256;2023-05-10T09:56:38;99012.81;;;19.74;59.29
70103;BME280;57470;50.034;15.256;2023-05-10T09:59:06;99015.72;;;19.65;60.37
70103;BME280;57470;50.034;15.256;2023-05-10T10:01:32;99002.59;;;19.45;58.95
70103;BME280;57470;50.034;15.256;2023-05-10T10:03:58;99010.25;;;19.81;57.96
70103;BME280;57470;50.034;15.256;2023-05-10T10:06:24;99010.25;;;19.81;59.69
70103;BME280;57470;50.034;15.256;2023-05-10T10:08:50;99003.28;;;19.47;58.58
70103;BME280;57470;50.034;15.256;2023-05-10T10:11:16;99001.88;;;19.60;58.74
70103;BME280;57470;50.034;15.256;2023-05-10T10:13:42;99012.06;;;19.89;56.69
70103;BME280;57470;50.034;15.256;2023-05-10T10:16:08;99003.63;;;20.22;58.52
70103;BME280;57470;50.034;15.256;2023-05-10T10:18:35;99001.50;;;20.41;57.30
70103;BME280;57470;50.034;15.256;2023-05-10T10:21:05;99006.63;;;20.28;57.93
70103;BME280;57470;50.034;15.256;2023-05-10T10:23:31;99004.09;;;20.03;57.49
70103;BME280;57470;50.034;15.256;2023-05-10T10:25:56;98991.94;;;20.38;57.06
70103;BME280;57470;50.034;15.256;2023-05-10T10:28:43;98994.00;;;20.51;56.54
70103;BME280;57470;50.034;15.256;2023-05-10T10:31:40;98989.31;;;20.22;58.15
70103;BME280;57470;50.034;15.256;2023-05-10T10:34:08;98987.03;;;20.03;57.79
70103;BME280;57470;50.034;15.256;2023-05-10T10:36:45;98992.66;;;19.38;58.39
70103;BME280;57470;50.034;15.256;2023-05-10T10:39:12;98988.66;;;20.43;57.46
70103;BME280;57470;50.034;15.256;2023-05-10T10:41:55;98997.75;;;20.19;55.72
70103;BME280;57470;50.034;15.256;2023-05-10T10:46:59;98989.25;;;19.99;57.53
70103;BME280;57470;50.034;15.256;2023-05-10T10:49:26;98995.16;;;20.79;57.03
70103;BME280;57470;50.034;15.256;2023-05-10T10:54:39;98988.22;;;20.77;54.65
70103;BME280;57470;50.034;15.256;2023-05-10T10:57:12;98991.50;;;21.10;55.81
70103;BME280;57470;50.034;15.256;2023-05-10T10:59:42;98990.69;;;20.86;55.01
70103;BME280;57470;50.034;15.256;2023-05-10T11:02:34;98991.53;;;20.87;56.99
70103;BME280;57470;50.034;15.256;2023-05-10T11:05:13;98990.16;;;20.91;56.13
70103;BME280;57470;50.034;15.256;2023-05-10T11:07:57;98979.19;;;20.70;55.78
70103;BME280;57470;50.034;15.256;2023-05-10T11:10:24;98979.59;;;20.58;55.24
70103;BME280;57470;50.034;15.256;2023-05-10T11:13:10;98988.88;;;20.64;56.68
70103;BME280;57470;50.034;15.256;2023-05-10T11:15:40;98979.28;;;20.76;55.44
70103;BME280;57470;50.034;15.256;2023-05-10T11:18:24;98981.91;;;20.47;55.76
70103;BME280;57470;50.034;15.256;2023-05-10T11:20:51;98987.59;;;20.52;55.63
70103;BME280;57470;50.034;15.256;2023-05-10T11:23:16;98973.66;;;20.63;54.48
70103;BME280;57470;50.034;15.256;2023-05-10T11:25:43;98980.50;;;20.74;55.22
70103;BME280;57470;50.034;15.256;2023-05-10T11:28:10;98977.72;;;20.59;54.39
70103;BME280;57470;50.034;15.256;2023-05-10T11:30:37;98977.22;;;21.01;55.43
70103;BME280;57470;50.034;15.256;2023-05-10T11:33:03;98980.88;;;20.85;56.08
70103;BME280;57470;50.034;15.256;2023-05-10T11:35:28;98979.66;;;20.50;56.42
70103;BME280;57470;50.034;15.256;2023-05-10T11:37:53;98980.34;;;20.75;55.95
70103;BME280;57470;50.034;15.256;2023-05-10T11:40:21;98985.50;;;21.00;56.47
70103;BME280;57470;50.034;15.256;2023-05-10T11:42:48;98981.03;;;20.92;53.61
70103;BME280;57470;50.034;15.256;2023-05-10T11:45:14;98990.41;;;20.81;55.29
70103;BME280;57470;50.034;15.256;2023-05-10T11:47:39;98982.72;;;20.70;55.11
70103;BME280;57470;50.034;15.256;2023-05-10T11:50:07;98993.06;;;21.04;55.33
70103;BME280;57470;50.034;15.256;2023-05-10T11:52:36;98993.47;;;20.78;56.09
70103;BME280;57470;50.034;15.256;2023-05-10T11:55:33;98998.63;;;20.88;56.03
70103;BME280;57470;50.034;15.256;2023-05-10T11:58:00;98991.00;;;20.91;56.60
70103;BME280;57470;50.034;15.256;2023-05-10T12:00:26;98992.13;;;21.49;56.52
70103;BME280;57470;50.034;15.256;2023-05-10T12:02:52;99009.09;;;21.43;56.94
70103;BME280;57470;50.034;15.256;2023-05-10T12:05:17;99000.13;;;20.68;55.46
70103;BME280;57470;50.034;15.256;2023-05-10T12:07:43;98996.31;;;21.52;55.95
70103;BME280;57470;50.034;15.256;2023-05-10T12:10:10;98995.66;;;21.50;54.47
70103;BME280;57470;50.034;15.256;2023-05-10T12:12:45;98993.53;;;21.08;54.62
70103;BME280;57470;50.034;15.256;2023-05-10T12:15:18;99003.50;;;20.92;54.84
70103;BME280;57470;50.034;15.256;2023-05-10T12:17:45;99004.59;;;21.21;54.93
70103;BME280;57470;50.034;15.256;2023-05-10T12:20:22;99006.03;;;21.09;55.21
70103;BME280;57470;50.034;15.256;2023-05-10T12:22:52;99003.25;;;21.54;55.54
70103;BME280;57470;50.034;15.256;2023-05-10T12:25:18;98996.81;;;21.55;55.38
70103;BME280;57470;50.034;15.256;2023-05-10T12:27:52;99005.56;;;21.43;55.04
70103;BME280;57470;50.034;15.256;2023-05-10T12:30:24;99012.06;;;21.19;55.40
70103;BME280;57470;50.034;15.256;2023-05-10T12:32:51;99009.03;;;21.14;55.04
70103;BME280;57470;50.034;15.256;2023-05-10T12:35:16;99011.31;;;21.25;54.47
70103;BME280;57470;50.034;15.256;2023-05-10T12:37:43;99001.81;;;20.46;55.72
70103;BME280;57470;50.034;15.256;2023-05-10T12:40:10;99003.69;;;20.68;55.42
70103;BME280;57470;50.034;15.256;2023-05-10T12:42:36;99008.75;;;20.48;55.97
70103;BME280;57470;50.034;15.256;2023-05-10T12:45:03;99002.75;;;20.30;56.83
70103;BME280;57470;50.034;15.256;2023-05-10T12:47:29;99012.34;;;20.64;57.23
70103;BME280;57470;50.034;15.256;2023-05-10T12:49:55;98999.97;;;20.46;56.87
70103;BME280;57470;50.034;15.256;2023-05-10T12:52:20;99006.03;;;21.09;56.85
70103;BME280;57470;50.034;15.256;2023-05-10T12:54:46;99008.66;;;20.79;57.54
70103;BME280;57470;50.034;15.256;2023-05-10T12:57:13;99003.59;;;20.76;55.54
70103;BME280;57470;50.034;15.256;2023-05-10T12:59:38;99013.56;;;20.98;56.82
70103;BME280;57470;50.034;15.256;2023-05-10T13:02:04;99013.47;;;20.69;56.64
70103;BME280;57470;50.034;15.256;2023-05-10T13:04:30;99008.38;;;20.74;55.12
70103;BME280;57470;50.034;15.256;2023-05-10T13:06:56;99010.03;;;21.13;56.64
70103;BME280;57470;50.034;15.256;2023-05-10T13:09:24;99008.47;;;20.81;56.04
70103;BME280;57470;50.034;15.256;2023-05-10T13:11:50;99024.34;;;21.74;57.73
70103;BME280;57470;50.034;15.256;2023-05-10T13:14:16;99014.09;;;20.94;55.66